createdAt,value
2023-01-19T00:01:03.554Z,1
2023-01-19T00:03:07.323Z,1.1
2023-01-19T00:09:20.964Z,0.9
2023-01-19T00:13:30.996Z,0.8
2023-01-19T00:15:34.656Z,0.9
2023-01-19T00:17:41.150Z,0.9
2023-01-19T00:19:44.692Z,0.8
2023-01-19T00:21:48.374Z,0.7
2023-01-19T00:25:58.406Z,0.5
2023-01-19T00:28:02.171Z,0.5
2023-01-19T00:30:08.436Z,0.5
2023-01-19T00:32:12.110Z,0.5
2023-01-19T00:34:15.784Z,0.6
2023-01-19T00:36:22.121Z,0.6
2023-01-19T00:40:29.508Z,0.6
2023-01-19T00:42:35.833Z,0.7
2023-01-19T00:44:39.510Z,0.7
2023-01-19T00:46:43.180Z,0.7
2023-01-19T00:48:49.515Z,0.7
2023-01-19T00:50:53.189Z,0.7
2023-01-19T00:52:56.932Z,0.8
2023-01-19T00:55:03.197Z,0.7
2023-01-19T00:57:06.858Z,0.7
2023-01-19T00:59:10.554Z,0.6
2023-01-19T01:01:16.999Z,0.5
2023-01-19T01:03:20.638Z,0.5
2023-01-19T01:05:24.231Z,0.4
2023-01-19T01:07:30.568Z,0.3
2023-01-19T01:09:34.227Z,0.3
2023-01-19T01:11:37.912Z,0.3
2023-01-19T01:13:44.230Z,0.3
2023-01-19T01:15:47.893Z,0.3
2023-01-19T01:17:51.592Z,0.5
2023-01-19T01:19:57.919Z,0.5
2023-01-19T01:22:01.623Z,0.5
2023-01-19T01:26:11.582Z,0.6
2023-01-19T01:28:15.262Z,0.8
2023-01-19T01:30:18.938Z,0.8
2023-01-19T01:32:25.281Z,0.9
2023-01-19T01:34:28.964Z,0.9
2023-01-19T01:36:32.629Z,0.9
2023-01-19T01:38:38.972Z,1
2023-01-19T01:40:42.675Z,1
2023-01-19T01:44:52.671Z,1.3
2023-01-19T01:49:00.038Z,1.2
2023-01-19T01:53:10.291Z,1.3
2023-01-19T01:55:13.735Z,1.2
2023-01-19T01:57:20.041Z,1.2
2023-01-19T01:59:23.727Z,1.2
2023-01-19T02:01:29.205Z,1.2
2023-01-19T02:06:37.905Z,1.3
2023-01-19T02:10:45.264Z,1.1
2023-01-19T02:20:09.168Z,1
2023-01-19T02:27:29.297Z,1
2023-01-19T02:29:33.026Z,1
2023-01-19T02:31:39.340Z,0.9
2023-01-19T02:33:42.987Z,0.8
2023-01-19T02:35:46.709Z,0.7
2023-01-19T02:40:58.736Z,0.5
2023-01-19T02:43:02.722Z,0.3
2023-01-19T02:47:12.468Z,0.4
2023-01-19T02:49:16.151Z,0.2
2023-01-19T02:51:19.816Z,0.3
2023-01-19T02:55:29.839Z,0.2
2023-01-19T02:57:33.499Z,0.3
2023-01-19T02:59:39.831Z,0.3
2023-01-19T03:01:43.639Z,0.3
2023-01-19T03:03:47.193Z,0.3
2023-01-19T03:05:53.487Z,0.3
2023-01-19T03:07:57.179Z,0.4
2023-01-19T03:10:00.861Z,0.3
2023-01-19T03:19:05.832Z,0.4
2023-01-19T03:23:13.267Z,0.6
2023-01-19T03:29:26.959Z,0.7
2023-01-19T03:33:36.942Z,0.7
2023-01-19T03:35:40.622Z,0.6
2023-01-19T03:42:55.937Z,0.8
2023-01-19T03:44:59.634Z,0.8
2023-01-19T03:54:21.313Z,0.9
2023-01-19T03:58:31.342Z,1
2023-01-19T04:00:35.008Z,1
2023-01-19T04:02:41.429Z,1.1
2023-01-19T04:04:45.039Z,1.1
2023-01-19T04:06:48.697Z,1.1
2023-01-19T04:08:55.036Z,1.2
2023-01-19T04:13:02.709Z,1.2
2023-01-19T04:15:08.831Z,1.2
2023-01-19T04:17:12.465Z,1.2
2023-01-19T04:19:16.131Z,1.2
2023-01-19T04:21:22.487Z,1.3
2023-01-19T04:25:29.877Z,1.3
2023-01-19T04:31:43.583Z,1.3
2023-01-19T04:33:49.900Z,1.3
2023-01-19T04:37:57.286Z,1.4
2023-01-19T04:40:03.642Z,1.6
2023-01-19T04:42:07.345Z,1.6
2023-01-19T04:44:11.039Z,1.7
2023-01-19T04:46:17.414Z,1.7
2023-01-19T04:50:24.773Z,1.8
2023-01-19T04:52:31.129Z,1.7
2023-01-19T04:54:34.896Z,1.7
2023-01-19T04:58:44.889Z,2
2023-01-19T05:00:48.665Z,1.9
2023-01-19T05:02:52.354Z,1.9
2023-01-19T05:04:58.662Z,1.9
2023-01-19T05:07:02.358Z,1.8
2023-01-19T05:09:06.055Z,1.8
2023-01-19T05:15:19.849Z,1.9
2023-01-19T05:17:26.181Z,1.9
2023-01-19T05:19:29.881Z,1.9
2023-01-19T05:21:33.589Z,1.8
2023-01-19T05:23:39.971Z,1.8
2023-01-19T05:25:43.668Z,1.8
2023-01-19T05:34:01.210Z,1.8
2023-01-19T05:36:07.539Z,1.8
2023-01-19T05:38:11.266Z,1.8
2023-01-19T05:40:14.971Z,1.8
2023-01-19T05:42:21.335Z,1.8
2023-01-19T05:44:25.040Z,1.8
2023-01-19T05:46:28.795Z,1.8
2023-01-19T05:48:35.128Z,1.7
2023-01-19T05:50:38.845Z,1.8
2023-01-19T05:52:42.552Z,1.7
2023-01-19T05:54:48.928Z,1.7
2023-01-19T05:56:52.655Z,1.8
2023-01-19T06:03:06.559Z,1.8
2023-01-19T06:15:34.005Z,1.6
2023-01-19T06:23:51.484Z,1.7
2023-01-19T06:25:57.841Z,1.9
2023-01-19T06:30:05.253Z,2
2023-01-19T06:34:15.329Z,2
2023-01-19T06:36:19.049Z,1.9
2023-01-19T06:38:25.371Z,2
2023-01-19T06:40:29.114Z,1.9
2023-01-19T06:42:32.858Z,2
2023-01-19T06:44:39.179Z,2
2023-01-19T06:48:46.617Z,1.9
2023-01-19T06:52:56.679Z,1.9
2023-01-19T06:55:00.407Z,1.8
2023-01-19T07:04:24.426Z,1.7
2023-01-19T07:06:30.765Z,1.7
2023-01-19T07:08:34.499Z,1.7
2023-01-19T07:11:25.462Z,1.8
2023-01-19T07:12:44.593Z,1.8
2023-01-19T07:14:48.283Z,1.8
2023-01-19T07:16:52.037Z,1.9
2023-01-19T07:18:58.353Z,1.9
2023-01-19T07:21:02.074Z,1.8
2023-01-19T07:23:05.787Z,1.9
2023-01-19T07:25:12.132Z,1.9
2023-01-19T07:27:15.869Z,1.8
2023-01-19T07:31:26.041Z,1.8
2023-01-19T07:33:29.654Z,1.9
2023-01-19T07:35:33.357Z,1.9
2023-01-19T07:37:39.716Z,1.8
2023-01-19T07:39:43.407Z,1.9
2023-01-19T07:41:47.313Z,1.9
2023-01-19T07:43:53.503Z,1.9
2023-01-19T07:45:57.253Z,1.9
2023-01-19T07:48:00.907Z,1.8
2023-01-19T07:50:07.259Z,1.8
2023-01-19T07:52:10.977Z,1.8
2023-01-19T07:54:14.674Z,1.8
2023-01-19T07:56:21.083Z,1.9
2023-01-19T07:58:24.774Z,2
2023-01-19T08:00:28.484Z,2
2023-01-19T08:02:34.848Z,2
2023-01-19T08:04:38.597Z,2
2023-01-19T08:06:42.234Z,2.1
2023-01-19T08:08:48.591Z,2
2023-01-19T08:12:56.035Z,2.1
2023-01-19T08:17:06.067Z,2.2
2023-01-19T08:19:09.759Z,2.1
2023-01-19T08:21:16.123Z,2.1
2023-01-19T08:23:19.821Z,2.1
2023-01-19T08:25:23.530Z,2.2
2023-01-19T08:27:29.879Z,2.3
2023-01-19T08:29:33.589Z,2.3
2023-01-19T08:31:37.388Z,2.3
2023-01-19T08:33:43.663Z,2.3
2023-01-19T08:35:47.352Z,2.3
2023-01-19T08:44:04.833Z,2.4
2023-01-19T08:46:11.289Z,2.4
2023-01-19T08:48:14.949Z,2.5
2023-01-19T08:50:18.645Z,2.4
2023-01-19T08:52:24.968Z,2.4
2023-01-19T08:54:28.726Z,2.4
2023-01-19T08:56:32.404Z,2.4
2023-01-19T08:58:38.754Z,2.4
2023-01-19T09:00:42.498Z,2.4
2023-01-19T09:02:46.243Z,2.4
2023-01-19T09:06:56.349Z,2.4
2023-01-19T09:11:06.364Z,2.3
2023-01-19T09:13:10.071Z,2.3
2023-01-19T09:17:20.159Z,2.2
2023-01-19T09:19:23.856Z,2.1
2023-01-19T09:21:27.579Z,2.1
2023-01-19T09:27:41.359Z,2.2
2023-01-19T09:29:47.719Z,2.3
2023-01-19T09:31:51.540Z,2.4
2023-01-19T09:33:55.136Z,2.6
2023-01-19T09:36:01.493Z,2.6
2023-01-19T09:38:05.199Z,2.7
2023-01-19T09:40:08.995Z,2.8
2023-01-19T09:42:15.266Z,2.8
2023-01-19T09:44:19.510Z,2.9
2023-01-19T09:48:29.586Z,3
2023-01-19T09:50:33.329Z,3
2023-01-19T09:52:37.044Z,3.1
2023-01-19T09:54:43.418Z,3.1
2023-01-19T09:56:47.141Z,3.1
2023-01-19T09:58:50.880Z,3.2
2023-01-19T10:03:01.260Z,3.2
2023-01-19T10:11:18.528Z,3.5
2023-01-19T10:13:24.954Z,3.5
2023-01-19T10:15:28.663Z,3.6
2023-01-19T10:17:32.388Z,3.7
2023-01-19T10:19:38.765Z,3.7
2023-01-19T10:25:52.649Z,4
2023-01-19T10:27:56.355Z,4.1
2023-01-19T10:30:00.203Z,4.1
2023-01-19T10:32:06.541Z,4
2023-01-19T10:34:10.246Z,3.9
2023-01-19T10:36:13.961Z,4
2023-01-19T10:38:20.396Z,4.2
2023-01-19T10:40:24.115Z,4.3
2023-01-19T10:42:27.843Z,4.5
2023-01-19T10:44:34.259Z,4.6
2023-01-19T10:46:37.987Z,4.7
2023-01-19T10:48:41.740Z,4.7
2023-01-19T10:50:48.137Z,4.8
2023-01-19T10:52:51.925Z,4.9
2023-01-19T10:54:55.699Z,5
2023-01-19T10:57:02.077Z,5.1
2023-01-19T11:01:09.704Z,5.1
2023-01-19T11:05:19.762Z,5.2
2023-01-19T11:09:29.941Z,5.6
2023-01-19T11:11:33.709Z,5.8
2023-01-19T11:13:37.499Z,5.8
2023-01-19T11:15:43.923Z,6.1
2023-01-19T11:17:47.708Z,6.5
2023-01-19T11:19:51.460Z,7
2023-01-19T11:21:57.886Z,7
2023-01-19T11:24:01.684Z,7.4
2023-01-19T11:26:05.446Z,7.7
2023-01-19T11:28:11.918Z,8.5
2023-01-19T11:32:19.443Z,6.2
2023-01-19T11:36:29.669Z,5.6
2023-01-19T11:58:04.948Z,5.4
2023-01-19T12:00:11.291Z,5.5
2023-01-19T12:02:15.113Z,5.6
2023-01-19T12:04:18.907Z,5.6
2023-01-19T12:06:25.298Z,6.1
2023-01-19T12:08:29.104Z,8.2
2023-01-19T12:10:32.903Z,9.4
2023-01-19T12:12:39.304Z,9.3
2023-01-19T12:14:43.140Z,9.1
2023-01-19T12:16:46.924Z,9
2023-01-19T12:18:53.346Z,9
2023-01-19T12:20:57.112Z,9.7
2023-01-19T12:23:00.923Z,9.7
2023-01-19T12:25:07.464Z,9.1
2023-01-19T12:27:11.141Z,9.4
2023-01-19T12:29:14.971Z,9.5
2023-01-19T12:31:21.564Z,9.2
2023-01-19T12:33:25.209Z,9.7
2023-01-19T12:35:28.976Z,10
2023-01-19T12:37:35.413Z,9.6
2023-01-19T12:39:39.244Z,10.7
2023-01-19T12:41:42.998Z,11
2023-01-19T12:43:49.455Z,9.9
2023-01-19T12:45:53.301Z,9.1
2023-01-19T12:47:57.018Z,8.4
2023-01-19T12:50:22.020Z,6.8
2023-01-19T12:52:25.845Z,6.7
2023-01-19T12:54:29.618Z,6.2
2023-01-19T12:56:36.712Z,6.2
2023-01-19T12:58:40.504Z,6.1
2023-01-19T13:00:44.330Z,6
2023-01-19T13:02:48.279Z,5.9
2023-01-19T13:04:51.949Z,5.8
2023-01-19T13:09:01.171Z,5.7
2023-01-19T13:11:08.223Z,5.6
2023-01-19T13:17:19.634Z,6.9
2023-01-19T13:21:27.261Z,5.6
2023-01-19T13:25:38.126Z,5.2
2023-01-19T13:27:41.930Z,5.2
2023-01-19T13:31:49.528Z,5.6
2023-01-19T13:33:53.315Z,6.1
2023-01-19T13:35:57.136Z,6.4
2023-01-19T13:38:00.942Z,7
2023-01-19T13:40:08.007Z,6.5
2023-01-19T13:42:11.796Z,6.1
2023-01-19T13:44:15.613Z,5.6
2023-01-19T13:45:19.155Z,5.4
2023-01-19T13:49:27.704Z,6.1
2023-01-19T13:51:31.475Z,6.3
2023-01-19T13:53:38.589Z,5.6
2023-01-19T13:55:42.348Z,5.5
2023-01-19T13:57:46.175Z,5.4
2023-01-19T13:59:50.029Z,5.5
2023-01-19T14:01:53.894Z,6.1
2023-01-19T14:03:57.568Z,6.2
2023-01-19T14:06:01.430Z,5.7
2023-01-19T14:08:08.500Z,5.4
2023-01-19T14:10:12.264Z,5.4
2023-01-19T14:12:16.059Z,5.5
2023-01-19T14:14:19.836Z,5.8
2023-01-19T14:16:23.716Z,5.9
2023-01-19T14:18:27.436Z,5.8
2023-01-19T14:20:31.235Z,5.9
2023-01-19T14:22:38.329Z,5.7
2023-01-19T14:26:45.904Z,5.6
2023-01-19T14:28:49.751Z,5.5
2023-01-19T14:30:53.642Z,5.5
2023-01-19T14:35:01.100Z,5.6
2023-01-19T14:37:08.154Z,5.5
2023-01-19T14:39:11.970Z,5.4
2023-01-19T14:42:19.323Z,5.2
2023-01-19T14:44:23.092Z,5.2
2023-01-19T14:48:30.668Z,5.3
2023-01-19T14:56:49.129Z,5.2
2023-01-19T14:58:52.906Z,5.1
2023-01-19T15:03:00.520Z,5
2023-01-19T15:05:07.949Z,4.9
2023-01-19T15:07:11.378Z,4.9
2023-01-19T15:09:15.157Z,4.8
2023-01-19T15:11:18.955Z,4.8
2023-01-19T15:13:22.738Z,4.7
2023-01-19T15:15:26.516Z,4.8
2023-01-19T15:17:30.299Z,4.7
2023-01-19T15:19:37.384Z,4.7
2023-01-19T15:21:41.156Z,4.7
2023-01-19T15:23:44.970Z,5
2023-01-19T15:25:48.725Z,5.2
2023-01-19T15:27:52.507Z,5
2023-01-19T15:29:56.294Z,4.6
2023-01-19T15:32:00.121Z,4.4
2023-01-19T15:34:07.108Z,4.1
2023-01-19T15:36:10.933Z,4
2023-01-19T15:38:14.698Z,3.8
2023-01-19T15:39:18.230Z,3.8
2023-01-19T15:49:40.377Z,3.6
2023-01-19T15:53:47.880Z,3.4
2023-01-19T15:55:51.662Z,3.3
2023-01-19T15:57:55.446Z,3.2
2023-01-19T15:59:59.171Z,3.2
2023-01-19T16:04:10.007Z,3.1
2023-01-19T16:06:13.735Z,2.9
2023-01-19T16:08:17.491Z,2.7
2023-01-19T16:10:21.259Z,2.8
2023-01-19T16:12:24.985Z,2.7
2023-01-19T16:14:28.726Z,2.7
2023-01-19T16:16:35.774Z,2.5
2023-01-19T16:18:39.505Z,2.5
2023-01-19T16:20:43.228Z,2.4
2023-01-19T16:22:46.964Z,2.3
2023-01-19T16:28:58.168Z,2.2
2023-01-19T16:33:08.887Z,2.1
2023-01-19T16:35:12.626Z,2.1
2023-01-19T16:37:19.012Z,2.1
2023-01-19T16:39:22.712Z,2.2
2023-01-19T16:41:26.445Z,2.1
2023-01-19T16:45:36.587Z,2.1
2023-01-19T16:47:40.236Z,2
2023-01-19T16:49:46.642Z,2
2023-01-19T16:51:50.326Z,2
2023-01-19T16:56:00.405Z,1.9
2023-01-19T16:58:04.127Z,1.8
2023-01-19T17:00:07.843Z,1.8
2023-01-19T17:02:14.362Z,1.8
2023-01-19T17:04:17.931Z,1.8
2023-01-19T17:06:21.625Z,1.6
2023-01-19T17:08:27.990Z,1.4
2023-01-19T17:10:31.730Z,1.3
2023-01-19T17:12:35.384Z,1.2
2023-01-19T17:14:41.744Z,1.1
2023-01-19T17:16:45.485Z,0.9
2023-01-19T17:18:49.131Z,1
2023-01-19T17:20:55.567Z,1.1
2023-01-19T17:22:59.217Z,1.1
2023-01-19T17:25:02.875Z,1.1
2023-01-19T17:27:09.254Z,1.1
2023-01-19T17:29:12.919Z,1.1
2023-01-19T17:31:16.755Z,1.1
2023-01-19T17:33:22.967Z,1.1
2023-01-19T17:35:26.656Z,0.9
2023-01-19T17:37:30.351Z,0.8
2023-01-19T17:41:40.380Z,0.8
2023-01-19T17:45:50.398Z,0.6
2023-01-19T17:47:54.064Z,0.5
2023-01-19T17:49:57.750Z,0.5
2023-01-19T17:52:04.062Z,0.4
2023-01-19T17:54:07.759Z,0.4
2023-01-19T17:56:11.438Z,0.4
2023-01-19T17:58:17.748Z,0.5
2023-01-19T18:00:21.462Z,0.6
2023-01-19T18:08:38.742Z,0.9
2023-01-19T18:12:48.735Z,0.9
2023-01-19T18:16:58.758Z,0.9
2023-01-19T18:19:02.426Z,0.9
2023-01-19T18:23:12.405Z,0.8
2023-01-19T18:25:16.087Z,0.7
2023-01-19T18:31:29.814Z,0.7
2023-01-19T18:35:39.717Z,0.6
2023-01-19T18:37:43.366Z,0.6
2023-01-19T18:39:47.015Z,0.6
2023-01-19T18:41:53.365Z,0.5
2023-01-19T18:46:00.726Z,0.6
2023-01-19T18:48:07.027Z,0.6
2023-01-19T18:50:10.840Z,0.6
2023-01-19T18:52:14.371Z,0.6
2023-01-19T18:54:20.691Z,0.6
2023-01-19T18:56:24.359Z,0.6
2023-01-19T18:58:28.034Z,0.6
2023-01-19T19:00:34.345Z,0.6
2023-01-19T19:04:41.699Z,0.6
2023-01-19T19:06:48.056Z,0.5
2023-01-19T19:08:51.671Z,0.5
2023-01-19T19:10:55.326Z,0.5
2023-01-19T19:13:01.658Z,0.5
2023-01-19T19:15:05.317Z,0.5
2023-01-19T19:17:08.988Z,0.5
2023-01-19T19:21:18.976Z,0.5
2023-01-19T19:23:22.629Z,0.5
2023-01-19T19:25:28.982Z,0.5
2023-01-19T19:27:32.626Z,0.5
2023-01-19T19:29:36.305Z,0.4
2023-01-19T19:31:42.739Z,0.4
2023-01-19T19:33:46.294Z,0.4
2023-01-19T19:35:49.969Z,0.3
2023-01-19T19:37:56.265Z,0.3
2023-01-19T19:39:59.934Z,0.3
2023-01-19T19:44:09.912Z,0.4
2023-01-19T19:50:23.552Z,0.3
2023-01-19T19:54:30.899Z,0.4
2023-01-19T19:58:40.895Z,0.3
2023-01-19T20:00:44.707Z,0.3
2023-01-19T20:02:50.861Z,0.3
2023-01-19T20:06:58.182Z,0.4
2023-01-19T20:11:08.150Z,0.4
2023-01-19T20:13:11.845Z,0.3
2023-01-19T20:15:18.143Z,0.4
2023-01-19T20:17:21.820Z,0.5
2023-01-19T20:19:25.488Z,0.5
2023-01-19T20:21:31.790Z,0.6
2023-01-19T20:23:35.497Z,0.6
2023-01-19T20:25:39.144Z,0.6
2023-01-19T20:30:50.233Z,0.5
2023-01-19T20:32:53.898Z,0.6
2023-01-19T20:37:03.888Z,0.6
2023-01-19T20:39:07.541Z,0.6
2023-01-19T20:41:11.217Z,0.6
2023-01-19T20:43:17.556Z,0.6
2023-01-19T20:45:21.270Z,0.6
2023-01-19T20:49:31.208Z,0.6
2023-01-19T20:51:34.917Z,0.6
2023-01-19T20:53:38.575Z,0.6
2023-01-19T20:55:44.893Z,0.6
2023-01-19T20:57:48.585Z,0.6
2023-01-19T20:59:52.241Z,0.6
2023-01-19T21:01:58.722Z,0.7
2023-01-19T21:04:02.284Z,0.7
2023-01-19T21:06:05.935Z,0.7
2023-01-19T21:08:12.252Z,0.7
2023-01-19T21:10:15.941Z,0.6
2023-01-19T21:12:19.600Z,0.7
2023-01-19T21:14:25.917Z,0.7
2023-01-19T21:16:29.689Z,0.6
2023-01-19T21:18:33.292Z,0.6
2023-01-19T21:20:39.595Z,0.6
2023-01-19T21:22:43.284Z,0.6
2023-01-19T21:24:46.945Z,0.6
2023-01-19T21:26:53.269Z,0.6
2023-01-19T21:31:00.619Z,0.5
2023-01-19T21:33:07.001Z,0.5
2023-01-19T21:35:11.063Z,0.5
2023-01-19T21:37:14.306Z,0.5
2023-01-19T21:39:20.641Z,0.5
2023-01-19T21:41:24.337Z,0.4
2023-01-19T21:45:34.416Z,0.4
2023-01-19T21:49:41.716Z,0.3
2023-01-19T21:55:55.402Z,0.2
2023-01-19T21:58:01.733Z,0.2
2023-01-19T22:08:22.715Z,0.3
2023-01-19T22:10:29.045Z,0.2
2023-01-19T22:16:42.751Z,0.2
2023-01-19T22:20:50.051Z,0.2
2023-01-19T22:22:56.379Z,0.2
2023-01-19T22:25:00.042Z,0.2
2023-01-19T22:27:03.688Z,0.1
2023-01-19T22:29:10.018Z,0.1
2023-01-19T22:31:13.833Z,0.1
2023-01-19T22:33:17.349Z,0.1
2023-01-19T22:35:23.662Z,0.1
2023-01-19T22:37:27.355Z,0.2
2023-01-19T22:39:30.985Z,0.2
2023-01-19T22:41:37.329Z,0.2
2023-01-19T22:43:40.979Z,0.3
2023-01-19T22:45:44.712Z,0.3
2023-01-19T22:47:51.028Z,0.2
2023-01-19T22:54:04.665Z,0.3
2023-01-19T22:58:11.994Z,0.3
2023-01-19T23:00:18.325Z,0.3
2023-01-19T23:02:22.065Z,0.4
2023-01-19T23:04:25.655Z,0.4
2023-01-19T23:06:31.987Z,0.4
2023-01-19T23:08:35.656Z,0.4
2023-01-19T23:10:39.344Z,0.4
2023-01-19T23:12:45.648Z,0.3
2023-01-19T23:14:49.363Z,0.3
2023-01-19T23:16:53.007Z,0.4
2023-01-19T23:18:59.331Z,0.4
2023-01-19T23:21:03.003Z,0.4
2023-01-19T23:23:06.696Z,0.3
2023-01-19T23:25:13.214Z,0.4
2023-01-19T23:27:16.663Z,0.4
2023-01-19T23:29:20.315Z,0.4
2023-01-19T23:31:26.746Z,0.3
2023-01-19T23:33:30.356Z,0.3
2023-01-19T23:35:34.049Z,0.3
2023-01-19T23:37:40.308Z,0.3
2023-01-19T23:50:07.661Z,0.4
2023-01-19T23:54:15.000Z,0.4
2023-01-19T23:58:24.980Z,0.4
